| time (UTC) | temp C | wind direction | speed KPH | gust KPH | rain 1hr cm | rain 24hr cm | rain mn cm | humidity % | barometer mb |
| 20260503071549 | 19 | 360 | 4.8 | 14.5 | 0.15 | 0.46 | 0.23 | 89 | 1013.6 |
| 20260503054558 | 21 | 0 | 0.0 | 0.0 | 0.03 | 0.30 | 0.08 | 88 | 1013.4 |
| 20260503053039 | 21 | 0 | 0.0 | 1.6 | 0.03 | 0.28 | 0.05 | 88 | 1014.0 |
| 20260503051620 | 21 | 0 | 0.0 | 3.2 | 0.05 | 0.28 | 0.05 | 88 | 1014.1 |
| 20260503050047 | 21 | 0 | 0.0 | 3.2 | 0.05 | 0.28 | 0.05 | 88 | 1014.0 |
| 20260503044547 | 21 | 0 | 0.0 | 3.2 | 0.05 | 0.28 | 0.05 | 88 | 1014.3 |
| 20260503043051 | 21 | 309 | 0.0 | 4.8 | 0.03 | 0.25 | 0.03 | 87 | 1014.2 |
| 20260503041542 | 21 | 0 | 0.0 | 1.6 | 0.00 | 0.23 | 0.00 | 87 | 1013.9 |
| 20260503040040 | 21 | 0 | 0.0 | 3.2 | 0.00 | 0.23 | 0.00 | 87 | 1013.4 |
| 20260503034545 | 21 | 0 | 0.0 | 0.0 | 0.00 | 0.23 | 0.23 | 87 | 1012.5 |
| 20260503033037 | 21 | 0 | 0.0 | 1.6 | 0.00 | 0.23 | 0.23 | 88 | 1012.5 |
| 20260503031544 | 21 | 176 | 0.0 | 4.8 | 0.00 | 0.23 | 0.23 | 88 | 1012.3 |
| 20260503030041 | 21 | 0 | 0.0 | 6.4 | 0.00 | 0.23 | 0.23 | 88 | 1012.4 |
| 20260503024540 | 21 | 209 | 0.0 | 4.8 | 0.00 | 0.23 | 0.23 | 88 | 1012.4 |
| 20260503023039 | 21 | 0 | 0.0 | 4.8 | 0.00 | 0.23 | 0.23 | 88 | 1012.4 |
| 20260503021547 | 21 | 0 | 0.0 | 4.8 | 0.00 | 0.23 | 0.23 | 88 | 1011.8 |
| 20260503020037 | 21 | 0 | 0.0 | 4.8 | 0.00 | 0.23 | 0.23 | 88 | 1011.8 |
| 20260503014551 | 21 | 0 | 0.0 | 6.4 | 0.00 | 0.23 | 0.23 | 88 | 1011.6 |
| 20260503013044 | 21 | 0 | 0.0 | 4.8 | 0.03 | 0.23 | 0.23 | 88 | 1011.5 |
| 20260503011542 | 21 | 0 | 1.6 | 4.8 | 0.03 | 0.23 | 0.23 | 88 | 1011.3 |
| 20260503010041 | 21 | 182 | 0.0 | 8.0 | 0.03 | 0.23 | 0.23 | 88 | 1011.4 |
| 20260503004540 | 21 | 0 | 0.0 | 4.8 | 0.03 | 0.23 | 0.23 | 88 | 1010.8 |
| 20260503003044 | 21 | 0 | 0.0 | 6.4 | 0.03 | 0.20 | 0.20 | 88 | 1009.7 |
| 20260503001548 | 21 | 325 | 1.6 | 8.0 | 0.05 | 0.20 | 0.20 | 88 | 1009.9 |
| 20260503000044 | 21 | 161 | 3.2 | 8.0 | 0.05 | 0.20 | 0.20 | 88 | 1009.9 |
| 20260502234549 | 21 | 0 | 0.0 | 3.2 | 0.05 | 0.20 | 0.20 | 88 | 1010.0 |
| 20260502233042 | 21 | 0 | 0.0 | 4.8 | 0.05 | 0.18 | 0.18 | 87 | 1010.1 |
| 20260502231538 | 21 | 248 | 3.2 | 11.3 | 0.03 | 0.15 | 0.15 | 87 | 1010.2 |
| 20260502230045 | 21 | 174 | 0.0 | 8.0 | 0.03 | 0.15 | 0.15 | 87 | 1010.3 |
| 20260502224545 | 21 | 167 | 0.0 | 6.4 | 0.05 | 0.15 | 0.15 | 87 | 1010.7 |
| 20260502223043 | 21 | 169 | 3.2 | 9.7 | 0.10 | 0.13 | 0.13 | 86 | 1010.2 |
| 20260502221540 | 21 | 168 | 0.0 | 4.8 | 0.10 | 0.13 | 0.13 | 85 | 1010.6 |
| 20260502220038 | 21 | 200 | 1.6 | 9.7 | 0.13 | 0.13 | 0.13 | 85 | 1010.9 |
| 20260502214555 | 21 | 177 | 0.0 | 4.8 | 0.10 | 0.10 | 0.10 | 84 | 1010.8 |
| 20260502213041 | 22 | 23 | 1.6 | 16.1 | 0.03 | 0.03 | 0.03 | 82 | 1010.7 |
| 20260502211542 | 22 | 341 | 3.2 | 12.9 | 0.03 | 0.03 | 0.03 | 79 | 1010.4 |
| 20260502210048 | 22 | 0 | 1.6 | 8.0 | 0.00 | 0.00 | 0.00 | 75 | 1010.2 |
| 20260502204543 | 23 | 218 | 1.6 | 17.7 | 0.00 | 0.00 | 0.00 | 73 | 1010.3 |
| 20260502203045 | 24 | 317 | 9.7 | 25.7 | 0.00 | 0.00 | 0.00 | 68 | 1010.5 |
| 20260502201544 | 27 | 331 | 14.5 | 27.4 | 0.00 | 0.00 | 0.00 | 62 | 1010.8 |
| 20260502200047 | 28 | 194 | 3.2 | 12.9 | 0.00 | 0.00 | 0.00 | 67 | 1010.0 |
| 20260502194541 | 28 | 182 | 3.2 | 11.3 | 0.00 | 0.00 | 0.00 | 66 | 1010.2 |
| 20260502193040 | 28 | 43 | 4.8 | 16.1 | 0.00 | 0.00 | 0.00 | 65 | 1010.2 |
| 20260502191540 | 28 | 332 | 4.8 | 14.5 | 0.00 | 0.00 | 0.00 | 64 | 1010.2 |
| 20260502190043 | 29 | 239 | 1.6 | 19.3 | 0.00 | 0.00 | 0.00 | 65 | 1010.3 |
| 20260502184550 | 29 | 142 | 6.4 | 16.1 | 0.00 | 0.00 | 0.00 | 64 | 1010.2 |
| 20260502183040 | 30 | 192 | 4.8 | 16.1 | 0.00 | 0.00 | 0.00 | 62 | 1010.4 |
| 20260502181544 | 30 | 169 | 11.3 | 24.1 | 0.00 | 0.00 | 0.00 | 61 | 1010.3 |
| 20260502163050 | 30 | 245 | 8.0 | 25.7 | 0.00 | 0.00 | 0.00 | 64 | 1010.6 |
| 20260502161541 | 29 | 174 | 6.4 | 24.1 | 0.00 | 0.00 | 0.00 | 64 | 1010.9 |
| 20260502151551 | 28 | 155 | 3.2 | 14.5 | 0.00 | 0.00 | 0.00 | 68 | 1011.1 |
| 20260502123049 | 21 | 205 | 1.6 | 9.7 | 0.00 | 0.00 | 0.00 | 90 | 1010.1 |
| 20260502121539 | 20 | 166 | 1.6 | 8.0 | 0.00 | 0.00 | 0.00 | 90 | 1009.9 |
| 20260502114539 | 20 | 173 | 0.0 | 3.2 | 0.00 | 0.00 | 0.00 | 90 | 1010.1 |
| 20260502113039 | 20 | 0 | 0.0 | 3.2 | 0.00 | 0.00 | 0.00 | 89 | 1010.0 |
| 20260502111543 | 20 | 0 | 0.0 | 0.0 | 0.00 | 0.00 | 0.00 | 89 | 1009.8 |
| 20260502110041 | 20 | 0 | 0.0 | 3.2 | 0.00 | 0.00 | 0.00 | 89 | 1009.7 |
| 20260502104550 | 20 | 0 | 0.0 | 4.8 | 0.00 | 0.00 | 0.00 | 88 | 1009.7 |
| 20260502103038 | 19 | 153 | 0.0 | 4.8 | 0.00 | 0.00 | 0.00 | 88 | 1009.3 |
| 20260502101613 | 19 | 0 | 0.0 | 0.0 | 0.00 | 0.00 | 0.00 | 87 | 1009.5 |
| 20260502100107 | 19 | 0 | 0.0 | 0.0 | 0.00 | 0.00 | 0.00 | 87 | 1009.7 |
| 20260502090105 | 20 | 0 | 0.0 | 0.0 | 0.00 | 0.00 | 0.00 | 87 | 1010.2 |